Latest Weather Observations for Hamilton Island

IDQ60801

Issued at 11:02 am EST Thursday 5 May 2016 (issued every 30 minutes, with the page automatically refreshed every 10 minutes)

About weather observations | Map of weather stations | Latest weather observations for QLD | Other Formats
Station Details ID: 033106 Name: HAMILTON ISLAND AIRPORT Lat: -20.37 Lon: 148.95 Height: 58.66 m
Data from the previous 72 hours. | See also: Recent months at Hamilton Island
Date/Time
EST
Temp
°C
App
Temp
°C
Dew
Point
Rel
Hum
%
Delta-T
°C
Wind Press
QNH
hPa
Press
MSL
hPa
Rain
since 9 am
mm
Dir
 
Spd
km/h
Gust
km/h
Spd
kts
Gust
kts
05/11:00am 25.9 26.5 22.8 83 2.1 SSE 24 28 13 15 1017.3 - 0.2
05/10:47am 26.1 27.1 22.8 82 2.2 SSE 22 26 12 14 1017.5 - 0.2
05/10:30am 26.7 27.6 23.4 82 2.3 SSE 24 26 13 14 1017.5 - 0.2
05/10:00am 26.6 27.1 22.7 79 2.6 SSE 24 28 13 15 1017.9 - 0.2
05/09:30am 26.3 26.6 23.0 82 2.2 SE 26 32 14 17 1017.9 - 0.0
05/09:18am 26.4 26.9 23.3 83 2.1 SE 26 30 14 16 1017.9 - 0.0
05/09:00am 25.7 25.5 22.8 84 2.0 SSE 28 32 15 17 1017.9 1017.7 1.4
05/08:30am 24.8 24.0 22.3 86 1.7 SSE 30 32 16 17 1017.7 - 1.4
05/08:00am 24.9 25.5 22.8 88 1.4 SSE 24 30 13 16 1017.4 - 1.4
05/07:35am 24.5 25.0 22.6 89 1.3 SSE 24 30 13 16 1017.0 - 1.4
05/07:30am 24.3 24.7 22.4 89 1.3 SSE 24 28 13 15 1017.1 - 1.4
05/07:00am 24.1 24.3 22.7 92 0.9 SSE 26 32 14 17 1016.8 - 1.4
05/06:30am 24.2 24.3 22.6 91 1.1 SSE 26 33 14 18 1016.3 - 1.4
05/06:24am 24.4 24.6 22.8 91 1.1 SSE 26 32 14 17 1016.3 - 1.4
05/06:20am 24.3 24.8 22.7 91 1.1 SSE 24 32 13 17 1016.3 - 1.4
05/06:00am 24.4 25.8 22.8 91 1.1 S 20 28 11 15 1016.1 1015.9 1.4
05/05:30am 24.2 25.5 22.6 91 1.1 S 20 24 11 13 1016.0 - 1.4
05/05:00am 24.2 25.6 22.8 92 0.9 S 20 24 11 13 1015.5 - 1.4
05/04:58am 24.2 25.6 22.8 92 0.9 S 20 24 11 13 1015.5 - 1.4
05/04:30am 24.3 25.6 22.7 91 1.1 SSE 20 24 11 13 1015.3 - 1.4
05/04:00am 24.3 26.2 22.7 91 1.1 S 17 20 9 11 1015.3 - 1.4
05/03:30am 24.4 26.3 22.8 91 1.1 SSE 17 20 9 11 1015.2 - 1.4
05/03:00am 24.3 25.8 22.7 91 1.1 SSE 19 22 10 12 1015.2 1015.0 1.4
05/02:30am 24.3 26.2 22.7 91 1.1 SSE 17 22 9 12 1015.1 - 1.4
05/02:00am 24.3 25.8 22.7 91 1.1 SSE 19 22 10 12 1015.2 - 1.4
05/01:56am 24.3 25.8 22.7 91 1.1 SSE 19 22 10 12 1015.3 - 1.4
05/01:30am 24.3 26.5 22.6 90 1.1 SE 15 19 8 10 1015.3 - 1.4
05/01:00am 24.3 26.8 22.4 89 1.3 SE 13 17 7 9 1015.7 - 1.4
05/12:30am 24.3 26.4 22.4 89 1.3 SE 15 17 8 9 1015.8 - 1.4
05/12:00am 24.4 27.3 22.5 89 1.3 SSE 11 15 6 8 1016.3 1016.1 1.4
 
Date/Time
EST
Temp
°C
App
Temp
°C
Dew
Point
Rel
Hum
%
Delta-T
°C
Wind Press
QNH
hPa
Press
MSL
hPa
Rain
since 9 am
mm
Dir
 
Spd
km/h
Gust
km/h
Spd
kts
Gust
kts
04/11:30pm 24.3 26.8 22.4 89 1.3 SSE 13 17 7 9 1016.4 - 1.4
04/11:00pm 24.3 26.9 22.7 91 1.1 SSE 13 17 7 9 1016.5 - 1.4
04/10:30pm 24.0 26.1 22.4 91 1.1 S 15 19 8 10 1016.8 - 1.4
04/10:00pm 23.9 24.9 22.2 90 1.1 S 20 24 11 13 1016.9 - 1.4
04/09:30pm 24.1 25.5 22.5 91 1.1 S 19 24 10 13 1017.0 - 1.4
04/09:00pm 24.1 25.5 22.5 91 1.1 S 19 22 10 12 1017.2 1017.0 1.4
04/08:30pm 24.3 27.3 22.7 91 1.1 S 11 15 6 8 1017.2 - 1.0
04/08:00pm 24.3 27.5 22.4 89 1.3 S 9 11 5 6 1016.9 - 0.8
04/07:30pm 24.1 27.3 22.4 90 1.1 S 9 11 5 6 1016.6 - 0.8
04/07:25pm 24.0 26.8 22.3 90 1.1 S 11 13 6 7 1016.4 - 0.8
04/07:08pm 24.1 27.1 22.7 92 0.9 S 11 15 6 8 1016.1 - 0.8
04/07:00pm 24.1 26.7 22.7 92 0.9 S 13 17 7 9 1016.0 - 0.8
04/06:30pm 24.2 26.4 22.6 91 1.1 S 15 20 8 11 1015.7 - 0.8
04/06:00pm 24.2 26.5 22.8 92 0.9 S 15 17 8 9 1015.3 1015.1 0.8
04/05:30pm 23.8 23.2 20.5 82 2.2 SSE 24 28 13 15 1014.9 - 0.6
04/05:00pm 25.1 26.1 22.2 84 1.9 SSE 20 24 11 13 1014.6 - 0.0
04/04:30pm 25.4 26.8 21.1 77 2.8 ESE 15 19 8 10 1014.2 - 0.0
04/04:00pm 26.1 27.2 22.0 78 2.7 ESE 19 22 10 12 1013.5 - 0.0
04/03:30pm 26.4 27.5 22.3 78 2.8 E 20 24 11 13 1013.4 - 0.0
04/03:00pm 26.7 27.8 22.3 77 3.0 ESE 20 22 11 12 1013.1 1012.8 0.0
04/02:30pm 26.8 27.8 22.2 76 3.1 ESE 20 22 11 12 1013.1 - 0.0
04/02:00pm 27.0 28.3 22.4 76 3.1 E 19 20 10 11 1013.0 - 0.0
04/01:30pm 27.1 28.7 22.1 74 3.4 E 17 19 9 10 1013.5 - 0.0
04/01:00pm 27.6 30.8 23.0 76 3.1 ESE 11 15 6 8 1014.0 - 0.0
04/12:30pm 28.3 32.4 22.3 70 4.1 N 4 7 2 4 1014.5 - 0.0
04/12:00pm 28.2 30.7 21.0 65 4.8 N 9 13 5 7 1014.7 1014.5 0.0
04/11:30am 28.1 31.8 22.6 72 3.7 SSW 7 9 4 5 1015.1 - 0.0
04/11:00am 27.5 30.0 21.1 68 4.3 N 9 11 5 6 1015.7 - 0.0
04/10:30am 26.7 29.5 22.3 77 3.0 NNW 11 15 6 8 1016.1 - 0.0
04/10:00am 26.1 29.6 22.2 79 2.6 NW 7 9 4 5 1016.4 - 0.0
04/09:30am 25.8 29.7 22.9 84 2.0 NNW 7 11 4 6 1016.3 - 0.0
04/09:00am 25.5 29.0 22.8 85 1.8 NNW 9 11 5 6 1016.3 1016.1 0.2
04/08:30am 25.0 28.9 22.9 88 1.4 NNW 7 9 4 5 1016.3 - 0.2
04/08:00am 24.6 28.6 22.8 90 1.2 NNW 6 9 3 5 1016.2 - 0.2
04/07:30am 24.2 28.6 22.8 92 0.9 W 4 6 2 3 1016.1 - 0.2
04/07:00am 23.7 28.7 22.5 93 0.8 CALM 0 0 0 0 1015.7 - 0.2
04/06:30am 23.5 27.4 22.5 94 0.7 NNW 6 7 3 4 1015.2 - 0.2
04/06:00am 23.4 27.0 22.4 94 0.7 NNW 7 9 4 5 1014.8 1014.6 0.2
04/05:30am 23.6 27.3 22.6 94 0.7 NW 7 9 4 5 1014.4 - 0.2
04/05:00am 23.4 26.6 22.4 94 0.7 NNW 9 11 5 6 1014.2 - 0.2
04/04:30am 23.5 27.2 22.5 94 0.7 NW 7 9 4 5 1014.2 - 0.2
04/04:00am 23.6 26.8 22.4 93 0.8 NNW 9 9 5 5 1013.9 - 0.2
04/03:30am 23.8 27.6 22.4 92 0.9 WNW 6 7 3 4 1013.8 - 0.2
04/03:00am 23.5 27.1 22.3 93 0.8 WNW 7 9 4 5 1013.8 1013.5 0.2
04/02:30am 23.5 26.6 22.1 92 0.9 NW 9 9 5 5 1013.7 - 0.2
04/02:00am 23.6 27.1 22.2 92 0.9 NW 7 9 4 5 1013.8 - 0.2
04/01:30am 23.9 27.1 21.6 87 1.5 NNW 7 9 4 5 1014.0 - 0.2
04/01:00am 24.1 28.4 22.0 88 1.4 W 2 6 1 3 1014.4 - 0.2
04/12:30am 24.1 27.9 22.4 90 1.1 WNW 6 7 3 4 1014.5 - 0.2
04/12:00am 24.2 29.0 22.1 88 1.4 CALM 0 0 0 0 1014.7 1014.5 0.2
 
Date/Time
EST
Temp
°C
App
Temp
°C
Dew
Point
Rel
Hum
%
Delta-T
°C
Wind Press
QNH
hPa
Press
MSL
hPa
Rain
since 9 am
mm
Dir
 
Spd
km/h
Gust
km/h
Spd
kts
Gust
kts
03/11:30pm 24.4 28.6 21.7 85 1.8 NE 2 7 1 4 1014.9 - 0.2
03/11:00pm 24.5 27.7 21.6 84 1.9 NE 7 9 4 5 1014.9 - 0.2
03/10:30pm 24.4 27.7 21.9 86 1.7 NNE 7 9 4 5 1015.0 - 0.2
03/10:00pm 24.5 28.0 21.8 85 1.8 NNE 6 6 3 3 1015.4 - 0.2
03/09:30pm 24.5 27.8 21.8 85 1.8 NE 7 9 4 5 1015.5 - 0.2
03/09:00pm 24.9 28.2 21.8 83 2.1 N 7 9 4 5 1015.4 1015.2 0.2
03/08:30pm 24.7 27.5 21.6 83 2.1 NE 9 13 5 7 1015.4 - 0.2
03/08:00pm 24.7 27.5 21.6 83 2.1 NE 9 11 5 6 1015.2 - 0.2
03/07:30pm 24.6 27.9 21.9 85 1.8 ENE 7 9 4 5 1014.8 - 0.2
03/07:00pm 24.8 28.0 21.7 83 2.1 NE 7 9 4 5 1014.5 - 0.2
03/06:30pm 25.0 27.6 21.9 83 2.1 ENE 11 13 6 7 1014.0 - 0.2
03/06:00pm 25.3 27.2 22.0 82 2.2 ENE 15 17 8 9 1013.5 1013.2 0.2
03/05:30pm 25.5 26.9 21.8 80 2.5 ENE 17 20 9 11 1013.1 - 0.2
03/05:00pm 25.6 27.3 22.3 82 2.2 E 17 20 9 11 1012.9 - 0.2
03/04:30pm 25.6 27.5 22.1 81 2.3 E 15 19 8 10 1012.6 - 0.2
03/04:00pm 25.9 27.5 22.2 80 2.5 E 17 20 9 11 1012.5 - 0.2
03/03:30pm 26.0 27.4 22.5 81 2.4 E 19 22 10 12 1012.3 - 0.2
03/03:00pm 26.1 27.6 22.0 78 2.7 ESE 17 20 9 11 1012.3 1012.0 0.2
03/02:30pm 26.5 28.8 22.8 80 2.5 ESE 15 17 8 9 1012.3 - 0.2
03/02:00pm 26.4 29.1 22.9 81 2.4 SE 13 15 7 8 1012.5 - 0.2
03/01:30pm 26.7 29.6 23.2 81 2.4 SE 13 15 7 8 1012.9 - 0.2
03/01:25pm 26.7 29.5 23.0 80 2.5 SE 13 15 7 8 1012.8 - 0.2
03/01:00pm 26.5 29.5 23.4 83 2.1 SE 13 15 7 8 1013.2 - 0.2
03/12:30pm 26.5 29.4 23.2 82 2.3 SE 13 13 7 7 1013.7 - 0.2
03/12:26pm 26.7 30.0 23.8 84 2.0 SE 13 13 7 7 1013.7 - 0.2
03/12:00pm 26.3 29.2 23.2 83 2.1 SE 13 15 7 8 1014.0 1013.7 0.2
03/11:30am 25.9 27.7 23.2 85 1.8 SSE 19 20 10 11 1014.5 - 0.2
03/11:00am 25.6 27.2 22.9 85 1.8 SSE 19 20 10 11 1015.1 - 0.2
03/10:30am 26.3 29.0 23.4 84 2.0 SSE 15 20 8 11 1015.5 - 0.2
03/10:23am 26.1 28.5 23.0 83 2.1 SSE 15 19 8 10 1015.5 - 0.2
03/10:00am 25.9 28.4 23.2 85 1.8 SSE 15 17 8 9 1015.7 - 0.0
03/09:38am 25.0 28.2 23.1 89 1.3 SSE 11 15 6 8 1015.8 - 0.0
03/09:35am 25.0 28.2 23.1 89 1.3 SSE 11 15 6 8 1015.8 - 0.0
03/09:30am 24.9 28.1 23.0 89 1.3 SSE 11 15 6 8 1015.7 - 0.0
03/09:00am 24.7 28.6 22.9 90 1.2 SE 7 9 4 5 1015.6 1015.4 0.0
03/08:54am 24.7 28.5 22.8 89 1.3 SE 7 11 4 6 1015.6 - 0.0
03/08:51am 24.6 28.4 22.7 89 1.3 SE 7 11 4 6 1015.6 - 0.0
03/08:30am 24.7 29.0 23.3 92 1.0 SSE 6 7 3 4 1015.6 - 0.0
03/08:03am 24.3 29.1 22.9 92 0.9 SW 2 7 1 4 1015.5 - 0.0
03/08:00am 24.5 29.8 23.1 92 0.9 CALM 0 0 0 0 1015.4 - 0.0
03/07:30am 24.5 29.1 23.1 92 0.9 WSW 4 7 2 4 1015.2 - 0.0
03/07:00am 24.1 29.5 23.2 95 0.6 CALM 0 0 0 0 1015.0 - 0.0
03/06:30am 23.9 28.8 23.0 95 0.6 W 2 6 1 3 1014.7 - 0.0
03/06:00am 23.8 27.9 22.9 95 0.6 NW 6 6 3 3 1014.3 1014.0 0.0
03/05:30am 23.8 29.0 22.8 94 0.7 CALM 0 0 0 0 1014.1 - 0.0
03/05:00am 24.0 28.1 23.0 94 0.7 S 6 7 3 4 1014.0 - 0.0
03/04:30am 24.0 29.3 23.0 94 0.7 CALM 0 0 0 0 1013.9 - 0.0
03/04:00am 24.0 29.3 23.0 94 0.7 CALM 0 0 0 0 1014.0 - 0.0
03/03:30am 24.0 29.3 23.0 94 0.7 CALM 0 0 0 0 1014.0 - 0.0
03/03:00am 24.0 28.1 23.0 94 0.7 SSW 6 7 3 4 1014.1 1013.8 0.0
03/02:30am 24.1 28.3 23.1 94 0.7 SSW 6 7 3 4 1014.1 - 0.0
03/02:00am 24.0 29.3 23.0 94 0.7 CALM 0 6 0 3 1014.3 - 0.0
03/01:30am 24.0 28.5 23.0 94 0.7 WNW 4 9 2 5 1014.4 - 0.0
03/01:00am 24.1 28.3 23.1 94 0.7 NW 6 7 3 4 1014.8 - 0.0
03/12:30am 24.2 28.7 23.0 93 0.8 NW 4 6 2 3 1014.9 - 0.0
03/12:00am 24.4 28.6 23.2 93 0.8 NW 6 7 3 4 1015.2 1015.0 0.0
 
Date/Time
EST
Temp
°C
App
Temp
°C
Dew
Point
Rel
Hum
%
Delta-T
°C
Wind Press
QNH
hPa
Press
MSL
hPa
Rain
since 9 am
mm
Dir
 
Spd
km/h
Gust
km/h
Spd
kts
Gust
kts
02/11:30pm 24.7 28.9 23.1 91 1.1 N 6 7 3 4 1015.5 - 0.0
02/11:00pm 24.8 30.0 22.9 89 1.3 CALM 0 0 0 0 1015.6 - 0.0
02/10:30pm 24.8 30.0 22.9 89 1.3 CALM 0 0 0 0 1016.0 - 0.0
02/10:00pm 24.8 30.0 22.9 89 1.3 CALM 0 0 0 0 1016.0 - 0.0
02/09:30pm 24.8 30.0 22.9 89 1.3 CALM 0 0 0 0 1016.2 - 0.0
02/09:00pm 25.0 29.8 22.9 88 1.4 NE 2 6 1 3 1016.1 1015.9 0.0
02/08:30pm 25.1 29.9 22.8 87 1.6 NE 2 6 1 3 1016.2 - 0.0
02/08:00pm 25.1 28.8 22.6 86 1.7 E 7 9 4 5 1015.8 - 0.0
02/07:30pm 25.3 28.6 22.6 85 1.8 ENE 9 11 5 6 1015.2 - 0.0
02/07:00pm 25.5 28.5 22.6 84 2.0 ENE 11 17 6 9 1014.9 - 0.0
02/06:30pm 25.5 27.7 22.6 84 2.0 E 15 19 8 10 1014.5 - 0.0
02/06:00pm 25.6 27.5 22.7 84 2.0 E 17 20 9 11 1014.3 1014.0 0.0
02/05:30pm 25.7 27.5 22.6 83 2.1 E 17 20 9 11 1014.0 - 0.0
02/05:26pm 25.8 27.7 22.7 83 2.1 E 17 22 9 12 1013.9 - 0.0
02/05:00pm 25.7 27.3 23.2 86 1.7 E 20 24 11 13 1013.8 - 0.0
02/04:57pm 25.8 27.4 23.3 86 1.7 E 20 24 11 13 1013.8 - 0.0
02/04:30pm 25.9 27.8 23.4 86 1.7 E 19 20 10 11 1013.5 - 0.0
02/04:00pm 26.0 27.6 23.3 85 1.8 E 20 22 11 12 1013.3 - 0.0
02/03:30pm 26.1 27.9 23.6 86 1.7 E 20 22 11 12 1013.4 - 0.0
02/03:00pm 26.2 28.0 23.3 84 2.0 E 19 20 10 11 1013.5 1013.2 0.0
02/02:47pm 26.3 28.5 23.2 83 2.1 ESE 17 20 9 11 1013.4 - 0.0
02/02:30pm 26.6 28.7 23.1 81 2.4 ESE 17 19 9 10 1013.4 - 0.0
02/02:10pm 26.7 30.1 23.4 82 2.3 ESE 11 13 6 7 1013.5 - 0.0
02/02:00pm 26.7 29.6 23.2 81 2.4 SE 13 15 7 8 1013.6 - 0.0
02/01:30pm 27.1 30.1 24.0 83 2.1 SSE 15 19 8 10 1014.1 - 0.0
02/01:00pm 26.7 28.8 23.8 84 2.0 SSE 19 20 10 11 1014.5 - 0.0
02/12:30pm 27.1 29.6 23.8 82 2.3 SSE 17 19 9 10 1014.8 - 0.0
02/12:00pm 27.1 29.3 24.0 83 2.1 SSE 19 20 10 11 1015.2 1015.0 0.0
02/11:30am 27.0 29.6 23.9 83 2.1 SSE 17 19 9 10 1015.7 - 0.0

Other Formats:

Comma delimited format used in spreadsheet applications
http://www.bom.gov.au/fwo/IDQ60801/IDQ60801.94368.axf

JavaScript Object Notation format (JSON) in row-major order
http://www.bom.gov.au/fwo/IDQ60801/IDQ60801.94368.json